sensor_id;sensor_type;location;lat;lon;timestamp;temperature;humidity
52058;DHT22;38063;53.210;6.504;2023-03-11T00:00:56;0.60;99.90
52058;DHT22;38063;53.210;6.504;2023-03-11T00:03:22;0.70;99.90
52058;DHT22;38063;53.210;6.504;2023-03-11T00:05:49;0.60;99.90
52058;DHT22;38063;53.210;6.504;2023-03-11T00:08:17;0.60;99.90
52058;DHT22;38063;53.210;6.504;2023-03-11T00:10:45;1.00;99.90
52058;DHT22;38063;53.210;6.504;2023-03-11T00:13:13;0.50;99.90
52058;DHT22;38063;53.210;6.504;2023-03-11T00:15:39;0.50;99.90
52058;DHT22;38063;53.210;6.504;2023-03-11T00:18:05;0.50;99.90
52058;DHT22;38063;53.210;6.504;2023-03-11T00:20:34;0.50;99.90
52058;DHT22;38063;53.210;6.504;2023-03-11T00:23:00;0.50;99.90
52058;DHT22;38063;53.210;6.504;2023-03-11T00:25:28;0.50;99.90
52058;DHT22;38063;53.210;6.504;2023-03-11T00:27:55;0.70;99.90
52058;DHT22;38063;53.210;6.504;2023-03-11T00:30:22;1.50;99.90
52058;DHT22;38063;53.210;6.504;2023-03-11T00:32:49;0.60;99.90
52058;DHT22;38063;53.210;6.504;2023-03-11T00:35:18;0.60;99.90
52058;DHT22;38063;53.210;6.504;2023-03-11T00:37:45;0.50;99.90
52058;DHT22;38063;53.210;6.504;2023-03-11T00:40:16;0.50;99.90
52058;DHT22;38063;53.210;6.504;2023-03-11T00:42:42;0.50;99.90
52058;DHT22;38063;53.210;6.504;2023-03-11T00:45:08;0.50;99.90
52058;DHT22;38063;53.210;6.504;2023-03-11T00:47:34;0.50;99.90
52058;DHT22;38063;53.210;6.504;2023-03-11T00:49:59;0.50;99.90
52058;DHT22;38063;53.210;6.504;2023-03-11T00:52:25;0.40;99.90
52058;DHT22;38063;53.210;6.504;2023-03-11T00:54:51;0.50;99.90
52058;DHT22;38063;53.210;6.504;2023-03-11T00:57:16;0.40;99.90
52058;DHT22;38063;53.210;6.504;2023-03-11T00:59:42;0.50;99.90
52058;DHT22;38063;53.210;6.504;2023-03-11T01:02:08;0.50;99.90
52058;DHT22;38063;53.210;6.504;2023-03-11T01:04:33;0.50;99.90
52058;DHT22;38063;53.210;6.504;2023-03-11T01:06:59;0.50;99.90
52058;DHT22;38063;53.210;6.504;2023-03-11T01:09:24;0.50;99.90
52058;DHT22;38063;53.210;6.504;2023-03-11T01:11:50;0.50;99.90
52058;DHT22;38063;53.210;6.504;2023-03-11T01:14:17;0.50;99.90
52058;DHT22;38063;53.210;6.504;2023-03-11T01:16:42;0.40;99.90
52058;DHT22;38063;53.210;6.504;2023-03-11T01:19:08;0.40;99.90
52058;DHT22;38063;53.210;6.504;2023-03-11T01:21:34;1.30;99.90
52058;DHT22;38063;53.210;6.504;2023-03-11T01:23:59;0.40;99.90
52058;DHT22;38063;53.210;6.504;2023-03-11T01:26:25;0.40;99.90
52058;DHT22;38063;53.210;6.504;2023-03-11T01:28:50;0.40;99.90
52058;DHT22;38063;53.210;6.504;2023-03-11T01:31:16;0.40;99.90
52058;DHT22;38063;53.210;6.504;2023-03-11T01:33:42;0.40;99.90
52058;DHT22;38063;53.210;6.504;2023-03-11T01:36:08;0.40;99.90
52058;DHT22;38063;53.210;6.504;2023-03-11T01:38:33;0.40;99.90
52058;DHT22;38063;53.210;6.504;2023-03-11T01:40:59;0.40;99.90
52058;DHT22;38063;53.210;6.504;2023-03-11T01:43:54;0.40;99.90
52058;DHT22;38063;53.210;6.504;2023-03-11T01:46:22;0.40;99.90
52058;DHT22;38063;53.210;6.504;2023-03-11T01:48:50;0.40;99.90
52058;DHT22;38063;53.210;6.504;2023-03-11T01:51:32;0.40;99.90
52058;DHT22;38063;53.210;6.504;2023-03-11T01:54:17;0.40;99.90
52058;DHT22;38063;53.210;6.504;2023-03-11T01:56:44;0.40;99.90
52058;DHT22;38063;53.210;6.504;2023-03-11T01:59:13;0.50;99.90
52058;DHT22;38063;53.210;6.504;2023-03-11T02:01:51;0.40;99.90
52058;DHT22;38063;53.210;6.504;2023-03-11T02:04:20;0.40;99.90
52058;DHT22;38063;53.210;6.504;2023-03-11T02:06:46;0.30;99.90
52058;DHT22;38063;53.210;6.504;2023-03-11T02:09:12;0.30;99.90
52058;DHT22;38063;53.210;6.504;2023-03-11T02:11:37;0.30;99.90
52058;DHT22;38063;53.210;6.504;2023-03-11T02:14:05;0.30;99.90
52058;DHT22;38063;53.210;6.504;2023-03-11T02:16:32;0.30;99.90
52058;DHT22;38063;53.210;6.504;2023-03-11T02:19:01;0.20;99.90
52058;DHT22;38063;53.210;6.504;2023-03-11T02:21:31;0.20;99.90
52058;DHT22;38063;53.210;6.504;2023-03-11T02:24:20;0.20;99.90
52058;DHT22;38063;53.210;6.504;2023-03-11T02:29:14;0.20;99.90
52058;DHT22;38063;53.210;6.504;2023-03-11T02:31:40;0.20;99.90
52058;DHT22;38063;53.210;6.504;2023-03-11T02:34:10;0.10;99.90
52058;DHT22;38063;53.210;6.504;2023-03-11T02:36:40;0.10;99.90
52058;DHT22;38063;53.210;6.504;2023-03-11T02:39:08;0.00;99.90
52058;DHT22;38063;53.210;6.504;2023-03-11T02:41:36;0.00;99.90
52058;DHT22;38063;53.210;6.504;2023-03-11T02:44:05;0.00;99.90
52058;DHT22;38063;53.210;6.504;2023-03-11T02:46:31;-0.10;99.90
52058;DHT22;38063;53.210;6.504;2023-03-11T02:48:58;-0.10;99.90
52058;DHT22;38063;53.210;6.504;2023-03-11T02:51:24;-0.10;99.90
52058;DHT22;38063;53.210;6.504;2023-03-11T02:53:53;-0.10;99.90
52058;DHT22;38063;53.210;6.504;2023-03-11T02:56:19;-0.20;99.90
52058;DHT22;38063;53.210;6.504;2023-03-11T02:58:45;-0.20;99.90
52058;DHT22;38063;53.210;6.504;2023-03-11T03:01:10;-0.30;99.90
52058;DHT22;38063;53.210;6.504;2023-03-11T03:03:36;-0.30;99.90
52058;DHT22;38063;53.210;6.504;2023-03-11T03:06:02;-0.30;99.90
52058;DHT22;38063;53.210;6.504;2023-03-11T03:08:28;-0.40;99.90
52058;DHT22;38063;53.210;6.504;2023-03-11T03:10:53;-0.40;99.90
52058;DHT22;38063;53.210;6.504;2023-03-11T03:13:19;-0.40;99.90
52058;DHT22;38063;53.210;6.504;2023-03-11T03:15:45;-0.40;99.90
52058;DHT22;38063;53.210;6.504;2023-03-11T03:18:10;-0.50;99.90
52058;DHT22;38063;53.210;6.504;2023-03-11T03:20:36;-0.50;99.90
52058;DHT22;38063;53.210;6.504;2023-03-11T03:23:02;-0.50;99.90
52058;DHT22;38063;53.210;6.504;2023-03-11T03:25:28;-0.50;99.90
52058;DHT22;38063;53.210;6.504;2023-03-11T03:27:53;-0.50;99.90
52058;DHT22;38063;53.210;6.504;2023-03-11T03:30:19;-0.60;99.90
52058;DHT22;38063;53.210;6.504;2023-03-11T03:32:45;-0.60;99.90
52058;DHT22;38063;53.210;6.504;2023-03-11T03:35:11;-0.70;99.90
52058;DHT22;38063;53.210;6.504;2023-03-11T03:37:37;-0.70;99.90
52058;DHT22;38063;53.210;6.504;2023-03-11T03:40:04;-0.70;99.90
52058;DHT22;38063;53.210;6.504;2023-03-11T03:42:33;-0.80;99.90
52058;DHT22;38063;53.210;6.504;2023-03-11T03:44:59;-0.80;99.90
52058;DHT22;38063;53.210;6.504;2023-03-11T03:47:25;-0.80;99.90
52058;DHT22;38063;53.210;6.504;2023-03-11T03:49:51;-0.80;99.90
52058;DHT22;38063;53.210;6.504;2023-03-11T03:52:16;-0.70;99.90
52058;DHT22;38063;53.210;6.504;2023-03-11T03:54:42;-0.80;99.90
52058;DHT22;38063;53.210;6.504;2023-03-11T03:57:08;-0.70;99.90
52058;DHT22;38063;53.210;6.504;2023-03-11T03:59:34;-0.70;99.90
52058;DHT22;38063;53.210;6.504;2023-03-11T04:01:59;-0.70;99.90
52058;DHT22;38063;53.210;6.504;2023-03-11T04:04:25;-0.80;99.90
52058;DHT22;38063;53.210;6.504;2023-03-11T04:06:51;-0.80;99.90
52058;DHT22;38063;53.210;6.504;2023-03-11T04:09:17;-0.80;99.90
52058;DHT22;38063;53.210;6.504;2023-03-11T04:11:43;-0.90;99.90
52058;DHT22;38063;53.210;6.504;2023-03-11T04:14:08;-0.90;99.90
52058;DHT22;38063;53.210;6.504;2023-03-11T04:16:34;-1.00;99.90
52058;DHT22;38063;53.210;6.504;2023-03-11T04:19:00;-1.10;99.90
52058;DHT22;38063;53.210;6.504;2023-03-11T04:21:26;-1.10;99.90
52058;DHT22;38063;53.210;6.504;2023-03-11T04:23:51;-1.10;99.90
52058;DHT22;38063;53.210;6.504;2023-03-11T04:26:17;-1.20;99.90
52058;DHT22;38063;53.210;6.504;2023-03-11T04:28:43;-1.20;99.90
52058;DHT22;38063;53.210;6.504;2023-03-11T04:31:08;-1.20;99.90
52058;DHT22;38063;53.210;6.504;2023-03-11T04:33:34;-1.30;99.90
52058;DHT22;38063;53.210;6.504;2023-03-11T04:36:04;-1.30;99.90
52058;DHT22;38063;53.210;6.504;2023-03-11T04:38:30;-1.30;99.90
52058;DHT22;38063;53.210;6.504;2023-03-11T04:40:59;-1.30;99.90
52058;DHT22;38063;53.210;6.504;2023-03-11T04:43:25;-1.00;99.90
52058;DHT22;38063;53.210;6.504;2023-03-11T04:45:51;-1.30;99.90
52058;DHT22;38063;53.210;6.504;2023-03-11T04:48:17;-1.30;99.90
52058;DHT22;38063;53.210;6.504;2023-03-11T04:50:43;-1.30;99.90
52058;DHT22;38063;53.210;6.504;2023-03-11T04:53:08;-1.40;99.90
52058;DHT22;38063;53.210;6.504;2023-03-11T04:55:34;-1.40;99.90
52058;DHT22;38063;53.210;6.504;2023-03-11T04:57:59;-1.40;99.90
52058;DHT22;38063;53.210;6.504;2023-03-11T05:00:25;-1.50;99.90
52058;DHT22;38063;53.210;6.504;2023-03-11T05:02:51;-1.20;99.90
52058;DHT22;38063;53.210;6.504;2023-03-11T05:05:17;-1.60;99.90
52058;DHT22;38063;53.210;6.504;2023-03-11T05:07:45;-1.60;99.90
52058;DHT22;38063;53.210;6.504;2023-03-11T05:10:11;-1.60;99.90
52058;DHT22;38063;53.210;6.504;2023-03-11T05:12:37;-1.60;99.90
52058;DHT22;38063;53.210;6.504;2023-03-11T05:15:04;-1.70;99.90
52058;DHT22;38063;53.210;6.504;2023-03-11T05:17:30;-1.70;99.90
52058;DHT22;38063;53.210;6.504;2023-03-11T05:19:55;-1.80;99.90
52058;DHT22;38063;53.210;6.504;2023-03-11T05:22:22;-1.80;99.90
52058;DHT22;38063;53.210;6.504;2023-03-11T05:24:48;-1.80;99.90
52058;DHT22;38063;53.210;6.504;2023-03-11T05:27:14;-1.80;99.90
52058;DHT22;38063;53.210;6.504;2023-03-11T05:29:43;-1.90;99.90
52058;DHT22;38063;53.210;6.504;2023-03-11T05:32:10;-1.90;99.90
52058;DHT22;38063;53.210;6.504;2023-03-11T05:34:37;-1.90;99.90
52058;DHT22;38063;53.210;6.504;2023-03-11T05:37:02;-1.90;99.90
52058;DHT22;38063;53.210;6.504;2023-03-11T05:39:28;-1.90;99.90
52058;DHT22;38063;53.210;6.504;2023-03-11T05:41:54;-2.00;99.90
52058;DHT22;38063;53.210;6.504;2023-03-11T05:44:21;-2.00;99.90
52058;DHT22;38063;53.210;6.504;2023-03-11T05:46:47;-2.00;99.90
52058;DHT22;38063;53.210;6.504;2023-03-11T05:49:13;-2.00;99.90
52058;DHT22;38063;53.210;6.504;2023-03-11T05:51:38;-2.00;99.90
52058;DHT22;38063;53.210;6.504;2023-03-11T05:54:05;-1.60;99.90
52058;DHT22;38063;53.210;6.504;2023-03-11T05:56:36;-2.10;99.90
52058;DHT22;38063;53.210;6.504;2023-03-11T05:59:01;-2.20;99.90
52058;DHT22;38063;53.210;6.504;2023-03-11T06:01:27;-2.20;99.90
52058;DHT22;38063;53.210;6.504;2023-03-11T06:03:53;-2.20;99.90
52058;DHT22;38063;53.210;6.504;2023-03-11T06:06:18;-2.20;99.90
52058;DHT22;38063;53.210;6.504;2023-03-11T06:08:44;-2.20;99.90
52058;DHT22;38063;53.210;6.504;2023-03-11T06:11:14;-2.20;99.90
52058;DHT22;38063;53.210;6.504;2023-03-11T06:13:40;-2.20;99.90
52058;DHT22;38063;53.210;6.504;2023-03-11T06:16:07;-2.20;99.90
52058;DHT22;38063;53.210;6.504;2023-03-11T06:18:33;-2.20;99.90
52058;DHT22;38063;53.210;6.504;2023-03-11T06:21:00;-2.30;99.90
52058;DHT22;38063;53.210;6.504;2023-03-11T06:23:27;-2.30;99.90
52058;DHT22;38063;53.210;6.504;2023-03-11T06:25:56;-0.90;99.90
52058;DHT22;38063;53.210;6.504;2023-03-11T06:28:22;-2.30;99.90
52058;DHT22;38063;53.210;6.504;2023-03-11T06:30:48;-2.30;99.90
52058;DHT22;38063;53.210;6.504;2023-03-11T06:33:14;-2.30;99.90
52058;DHT22;38063;53.210;6.504;2023-03-11T06:35:40;-2.30;99.90
52058;DHT22;38063;53.210;6.504;2023-03-11T06:38:06;-2.30;99.90
52058;DHT22;38063;53.210;6.504;2023-03-11T06:40:31;-2.40;99.90
52058;DHT22;38063;53.210;6.504;2023-03-11T06:42:57;-2.30;99.90
52058;DHT22;38063;53.210;6.504;2023-03-11T06:45:23;-2.30;99.90
52058;DHT22;38063;53.210;6.504;2023-03-11T06:47:49;-2.40;99.90
52058;DHT22;38063;53.210;6.504;2023-03-11T06:50:15;-2.40;99.90
52058;DHT22;38063;53.210;6.504;2023-03-11T06:52:41;-2.40;99.90
52058;DHT22;38063;53.210;6.504;2023-03-11T06:55:07;-2.40;99.90
52058;DHT22;38063;53.210;6.504;2023-03-11T06:57:33;-2.40;99.90
52058;DHT22;38063;53.210;6.504;2023-03-11T06:59:58;-2.40;99.90
52058;DHT22;38063;53.210;6.504;2023-03-11T07:02:24;-2.40;99.90
52058;DHT22;38063;53.210;6.504;2023-03-11T07:04:50;-2.40;99.90
52058;DHT22;38063;53.210;6.504;2023-03-11T07:07:16;-2.40;99.90
52058;DHT22;38063;53.210;6.504;2023-03-11T07:09:42;-2.30;99.90
52058;DHT22;38063;53.210;6.504;2023-03-11T07:12:08;-2.30;99.90
52058;DHT22;38063;53.210;6.504;2023-03-11T07:14:33;-2.20;99.90
52058;DHT22;38063;53.210;6.504;2023-03-11T07:16:59;-2.20;99.90
52058;DHT22;38063;53.210;6.504;2023-03-11T07:19:25;-2.20;99.90
52058;DHT22;38063;53.210;6.504;2023-03-11T07:21:51;-2.10;99.90
52058;DHT22;38063;53.210;6.504;2023-03-11T07:24:16;-2.10;99.90
52058;DHT22;38063;53.210;6.504;2023-03-11T07:26:42;-2.00;99.90
52058;DHT22;38063;53.210;6.504;2023-03-11T07:29:08;-2.00;99.90
52058;DHT22;38063;53.210;6.504;2023-03-11T07:31:35;-2.00;99.90
52058;DHT22;38063;53.210;6.504;2023-03-11T07:34:03;-1.90;99.90
52058;DHT22;38063;53.210;6.504;2023-03-11T07:36:30;-0.80;99.90
52058;DHT22;38063;53.210;6.504;2023-03-11T07:39:01;-1.90;99.90
52058;DHT22;38063;53.210;6.504;2023-03-11T07:41:28;-1.80;99.90
52058;DHT22;38063;53.210;6.504;2023-03-11T07:43:56;-1.80;99.90
52058;DHT22;38063;53.210;6.504;2023-03-11T07:46:22;-1.70;99.90
52058;DHT22;38063;53.210;6.504;2023-03-11T07:48:49;-1.70;99.90
52058;DHT22;38063;53.210;6.504;2023-03-11T07:51:21;-1.60;99.90
52058;DHT22;38063;53.210;6.504;2023-03-11T07:53:47;-1.60;99.90
52058;DHT22;38063;53.210;6.504;2023-03-11T07:56:15;-1.60;99.90
52058;DHT22;38063;53.210;6.504;2023-03-11T07:58:42;-1.50;99.90
52058;DHT22;38063;53.210;6.504;2023-03-11T08:01:10;-1.50;99.90
52058;DHT22;38063;53.210;6.504;2023-03-11T08:03:36;-1.40;99.90
52058;DHT22;38063;53.210;6.504;2023-03-11T08:06:08;-1.20;99.90
52058;DHT22;38063;53.210;6.504;2023-03-11T08:08:36;-1.40;99.90
52058;DHT22;38063;53.210;6.504;2023-03-11T08:11:04;-1.40;99.90
52058;DHT22;38063;53.210;6.504;2023-03-11T08:13:31;-1.30;99.90
52058;DHT22;38063;53.210;6.504;2023-03-11T08:15:57;-1.30;99.90
52058;DHT22;38063;53.210;6.504;2023-03-11T08:18:23;-1.20;99.90
52058;DHT22;38063;53.210;6.504;2023-03-11T08:20:48;-1.20;99.90
52058;DHT22;38063;53.210;6.504;2023-03-11T08:23:14;-1.10;99.90
52058;DHT22;38063;53.210;6.504;2023-03-11T08:25:40;-1.10;99.90
52058;DHT22;38063;53.210;6.504;2023-03-11T08:28:06;-1.00;99.90
52058;DHT22;38063;53.210;6.504;2023-03-11T08:30:33;-1.00;99.90
52058;DHT22;38063;53.210;6.504;2023-03-11T08:32:59;-0.90;99.90
52058;DHT22;38063;53.210;6.504;2023-03-11T08:35:25;-0.90;99.90
52058;DHT22;38063;53.210;6.504;2023-03-11T08:37:51;-0.80;99.90
52058;DHT22;38063;53.210;6.504;2023-03-11T08:40:17;-0.80;99.90
52058;DHT22;38063;53.210;6.504;2023-03-11T08:42:43;-0.70;99.90
52058;DHT22;38063;53.210;6.504;2023-03-11T08:45:09;-0.60;99.90
52058;DHT22;38063;53.210;6.504;2023-03-11T08:47:36;-0.60;99.90
52058;DHT22;38063;53.210;6.504;2023-03-11T08:50:05;-0.50;99.90
52058;DHT22;38063;53.210;6.504;2023-03-11T08:52:30;-0.50;99.90
52058;DHT22;38063;53.210;6.504;2023-03-11T08:54:56;-0.40;99.90
52058;DHT22;38063;53.210;6.504;2023-03-11T08:57:22;-0.40;99.90
52058;DHT22;38063;53.210;6.504;2023-03-11T08:59:47;-0.30;99.90
52058;DHT22;38063;53.210;6.504;2023-03-11T09:02:13;-0.20;99.90
52058;DHT22;38063;53.210;6.504;2023-03-11T09:04:39;-0.20;99.90
52058;DHT22;38063;53.210;6.504;2023-03-11T09:07:04;-0.10;99.90
52058;DHT22;38063;53.210;6.504;2023-03-11T09:09:31;0.00;99.90
52058;DHT22;38063;53.210;6.504;2023-03-11T09:11:56;0.00;99.90
52058;DHT22;38063;53.210;6.504;2023-03-11T09:14:22;0.10;99.90
52058;DHT22;38063;53.210;6.504;2023-03-11T09:16:47;0.20;99.90
52058;DHT22;38063;53.210;6.504;2023-03-11T09:19:13;0.20;99.90
52058;DHT22;38063;53.210;6.504;2023-03-11T09:21:39;0.30;99.90
52058;DHT22;38063;53.210;6.504;2023-03-11T09:24:05;0.40;99.90
52058;DHT22;38063;53.210;6.504;2023-03-11T09:26:31;0.40;99.90
52058;DHT22;38063;53.210;6.504;2023-03-11T09:28:57;0.50;99.90
52058;DHT22;38063;53.210;6.504;2023-03-11T09:31:23;0.60;99.90
52058;DHT22;38063;53.210;6.504;2023-03-11T09:33:49;0.60;99.90
52058;DHT22;38063;53.210;6.504;2023-03-11T09:36:18;0.70;99.90
52058;DHT22;38063;53.210;6.504;2023-03-11T09:38:44;0.80;99.90
52058;DHT22;38063;53.210;6.504;2023-03-11T09:44:06;1.00;99.90
52058;DHT22;38063;53.210;6.504;2023-03-11T09:46:45;1.10;99.90
52058;DHT22;38063;53.210;6.504;2023-03-11T09:49:35;1.20;99.90
52058;DHT22;38063;53.210;6.504;2023-03-11T09:52:09;1.30;99.90
52058;DHT22;38063;53.210;6.504;2023-03-11T09:54:42;1.30;99.90
52058;DHT22;38063;53.210;6.504;2023-03-11T09:57:15;1.40;99.90
52058;DHT22;38063;53.210;6.504;2023-03-11T09:59:44;1.50;99.90
52058;DHT22;38063;53.210;6.504;2023-03-11T10:02:15;1.60;99.90
52058;DHT22;38063;53.210;6.504;2023-03-11T10:07:19;1.80;99.90
52058;DHT22;38063;53.210;6.504;2023-03-11T10:09:52;2.00;99.90
52058;DHT22;38063;53.210;6.504;2023-03-11T10:14:52;2.20;99.90
52058;DHT22;38063;53.210;6.504;2023-03-11T10:20:19;2.50;99.90
52058;DHT22;38063;53.210;6.504;2023-03-11T10:28:59;3.00;99.90
52058;DHT22;38063;53.210;6.504;2023-03-11T10:31:35;3.10;99.90
52058;DHT22;38063;53.210;6.504;2023-03-11T10:36:48;3.40;99.90
52058;DHT22;38063;53.210;6.504;2023-03-11T10:39:15;3.50;99.90
52058;DHT22;38063;53.210;6.504;2023-03-11T10:41:54;3.60;99.90
52058;DHT22;38063;53.210;6.504;2023-03-11T10:44:41;3.70;99.90
52058;DHT22;38063;53.210;6.504;2023-03-11T10:47:20;3.80;99.90
52058;DHT22;38063;53.210;6.504;2023-03-11T10:49:45;3.90;99.90
52058;DHT22;38063;53.210;6.504;2023-03-11T10:52:11;4.10;99.90
52058;DHT22;38063;53.210;6.504;2023-03-11T10:54:41;4.20;99.90
52058;DHT22;38063;53.210;6.504;2023-03-11T10:57:28;4.30;99.90
52058;DHT22;38063;53.210;6.504;2023-03-11T10:59:58;4.30;99.90
52058;DHT22;38063;53.210;6.504;2023-03-11T11:02:40;4.30;99.90
52058;DHT22;38063;53.210;6.504;2023-03-11T11:07:44;4.40;99.90
52058;DHT22;38063;53.210;6.504;2023-03-11T11:10:27;4.60;99.90
52058;DHT22;38063;53.210;6.504;2023-03-11T11:18:50;4.80;99.90
52058;DHT22;38063;53.210;6.504;2023-03-11T11:21:26;5.20;99.90
52058;DHT22;38063;53.210;6.504;2023-03-11T11:29:41;5.20;99.90
52058;DHT22;38063;53.210;6.504;2023-03-11T11:32:25;5.30;99.90
52058;DHT22;38063;53.210;6.504;2023-03-11T11:35:02;5.50;99.90
52058;DHT22;38063;53.210;6.504;2023-03-11T11:37:31;5.60;99.90
52058;DHT22;38063;53.210;6.504;2023-03-11T11:40:04;5.60;99.90
52058;DHT22;38063;53.210;6.504;2023-03-11T11:42:39;5.70;99.90
52058;DHT22;38063;53.210;6.504;2023-03-11T11:45:21;5.80;99.90
52058;DHT22;38063;53.210;6.504;2023-03-11T11:47:51;5.90;99.90
52058;DHT22;38063;53.210;6.504;2023-03-11T11:50:44;6.10;99.90
52058;DHT22;38063;53.210;6.504;2023-03-11T11:55:55;6.30;99.90
52058;DHT22;38063;53.210;6.504;2023-03-11T11:58:21;6.30;99.90
52058;DHT22;38063;53.210;6.504;2023-03-11T12:01:09;6.30;99.90
52058;DHT22;38063;53.210;6.504;2023-03-11T12:06:34;6.50;99.90
52058;DHT22;38063;53.210;6.504;2023-03-11T12:17:34;6.90;99.90
52058;DHT22;38063;53.210;6.504;2023-03-11T12:20:10;6.70;99.90
52058;DHT22;38063;53.210;6.504;2023-03-11T12:26:14;6.90;99.90
52058;DHT22;38063;53.210;6.504;2023-03-11T12:28:49;7.00;99.90
52058;DHT22;38063;53.210;6.504;2023-03-11T12:31:16;6.90;99.90
52058;DHT22;38063;53.210;6.504;2023-03-11T12:33:45;6.90;99.90
52058;DHT22;38063;53.210;6.504;2023-03-11T12:36:39;6.80;99.90
52058;DHT22;38063;53.210;6.504;2023-03-11T12:39:17;6.70;99.90
52058;DHT22;38063;53.210;6.504;2023-03-11T12:41:44;6.60;99.90
52058;DHT22;38063;53.210;6.504;2023-03-11T12:49:30;6.80;99.90
52058;DHT22;38063;53.210;6.504;2023-03-11T12:52:19;6.60;99.90
52058;DHT22;38063;53.210;6.504;2023-03-11T12:54:48;6.60;99.90
52058;DHT22;38063;53.210;6.504;2023-03-11T13:05:28;6.90;99.90
52058;DHT22;38063;53.210;6.504;2023-03-11T13:10:37;7.00;99.90
52058;DHT22;38063;53.210;6.504;2023-03-11T13:15:48;7.10;99.90
52058;DHT22;38063;53.210;6.504;2023-03-11T13:18:17;7.10;99.90
52058;DHT22;38063;53.210;6.504;2023-03-11T13:20:50;7.20;99.90
52058;DHT22;38063;53.210;6.504;2023-03-11T13:23:28;7.30;99.90
52058;DHT22;38063;53.210;6.504;2023-03-11T13:34:16;7.60;99.90
52058;DHT22;38063;53.210;6.504;2023-03-11T13:39:37;7.50;99.90
52058;DHT22;38063;53.210;6.504;2023-03-11T13:42:19;7.50;99.90
52058;DHT22;38063;53.210;6.504;2023-03-11T13:44:46;7.50;99.90
52058;DHT22;38063;53.210;6.504;2023-03-11T13:47:15;7.70;99.90
52058;DHT22;38063;53.210;6.504;2023-03-11T13:52:32;7.10;99.90
52058;DHT22;38063;53.210;6.504;2023-03-11T13:57:34;7.30;99.90
52058;DHT22;38063;53.210;6.504;2023-03-11T14:00:21;7.30;99.90
52058;DHT22;38063;53.210;6.504;2023-03-11T14:02:58;7.10;99.90
52058;DHT22;38063;53.210;6.504;2023-03-11T14:05:31;6.80;99.90
52058;DHT22;38063;53.210;6.504;2023-03-11T14:08:23;6.60;99.90
52058;DHT22;38063;53.210;6.504;2023-03-11T14:11:00;6.50;99.90
52058;DHT22;38063;53.210;6.504;2023-03-11T14:13:29;6.40;99.90
52058;DHT22;38063;53.210;6.504;2023-03-11T14:16:07;6.30;99.90
52058;DHT22;38063;53.210;6.504;2023-03-11T14:18:44;6.10;99.90
52058;DHT22;38063;53.210;6.504;2023-03-11T14:21:19;6.00;99.90
52058;DHT22;38063;53.210;6.504;2023-03-11T14:23:50;6.00;99.90
52058;DHT22;38063;53.210;6.504;2023-03-11T14:26:20;6.10;99.90
52058;DHT22;38063;53.210;6.504;2023-03-11T14:29:15;6.20;99.90
52058;DHT22;38063;53.210;6.504;2023-03-11T14:31:41;6.20;99.90
52058;DHT22;38063;53.210;6.504;2023-03-11T14:34:23;6.50;99.90
52058;DHT22;38063;53.210;6.504;2023-03-11T14:36:50;6.80;99.90
52058;DHT22;38063;53.210;6.504;2023-03-11T14:44:28;6.70;99.90
52058;DHT22;38063;53.210;6.504;2023-03-11T14:47:03;6.50;99.90
52058;DHT22;38063;53.210;6.504;2023-03-11T14:49:29;6.50;99.90
52058;DHT22;38063;53.210;6.504;2023-03-11T14:52:00;6.40;99.90
52058;DHT22;38063;53.210;6.504;2023-03-11T14:54:32;6.30;99.90
52058;DHT22;38063;53.210;6.504;2023-03-11T14:57:06;6.20;99.90
52058;DHT22;38063;53.210;6.504;2023-03-11T14:59:33;6.00;99.90
52058;DHT22;38063;53.210;6.504;2023-03-11T15:04:56;5.60;99.90
52058;DHT22;38063;53.210;6.504;2023-03-11T15:07:23;5.50;99.90
52058;DHT22;38063;53.210;6.504;2023-03-11T15:09:49;5.40;99.90
52058;DHT22;38063;53.210;6.504;2023-03-11T15:14:56;4.90;99.90
52058;DHT22;38063;53.210;6.504;2023-03-11T15:19:50;4.40;99.90
52058;DHT22;38063;53.210;6.504;2023-03-11T15:22:33;4.90;99.90
52058;DHT22;38063;53.210;6.504;2023-03-11T15:25:01;4.00;99.90
52058;DHT22;38063;53.210;6.504;2023-03-11T15:27:34;3.90;99.90
52058;DHT22;38063;53.210;6.504;2023-03-11T15:30:02;3.80;99.90
52058;DHT22;38063;53.210;6.504;2023-03-11T15:34:59;3.80;99.90
52058;DHT22;38063;53.210;6.504;2023-03-11T15:37:25;3.80;99.90
52058;DHT22;38063;53.210;6.504;2023-03-11T15:39:51;3.80;99.90
52058;DHT22;38063;53.210;6.504;2023-03-11T15:42:22;3.80;99.90
52058;DHT22;38063;53.210;6.504;2023-03-11T15:47:23;3.80;99.90
52058;DHT22;38063;53.210;6.504;2023-03-11T15:49:49;3.80;99.90
52058;DHT22;38063;53.210;6.504;2023-03-11T15:52:16;3.80;99.90
52058;DHT22;38063;53.210;6.504;2023-03-11T15:54:43;3.80;99.90
52058;DHT22;38063;53.210;6.504;2023-03-11T15:57:22;3.90;99.90
52058;DHT22;38063;53.210;6.504;2023-03-11T15:59:50;3.90;99.90
52058;DHT22;38063;53.210;6.504;2023-03-11T16:02:22;3.80;99.90
52058;DHT22;38063;53.210;6.504;2023-03-11T16:04:48;3.70;99.90
52058;DHT22;38063;53.210;6.504;2023-03-11T16:07:14;3.50;99.90
52058;DHT22;38063;53.210;6.504;2023-03-11T16:09:40;3.30;99.90
52058;DHT22;38063;53.210;6.504;2023-03-11T16:12:21;3.10;99.90
52058;DHT22;38063;53.210;6.504;2023-03-11T16:14:48;2.90;99.90
52058;DHT22;38063;53.210;6.504;2023-03-11T16:17:15;2.60;99.90
52058;DHT22;38063;53.210;6.504;2023-03-11T16:19:41;3.80;99.90
52058;DHT22;38063;53.210;6.504;2023-03-11T16:22:15;2.40;99.90
52058;DHT22;38063;53.210;6.504;2023-03-11T16:24:42;2.40;99.90
52058;DHT22;38063;53.210;6.504;2023-03-11T16:27:12;2.40;99.90
52058;DHT22;38063;53.210;6.504;2023-03-11T16:29:39;2.40;99.90
52058;DHT22;38063;53.210;6.504;2023-03-11T16:32:05;2.50;99.90
52058;DHT22;38063;53.210;6.504;2023-03-11T16:34:30;2.50;99.90
52058;DHT22;38063;53.210;6.504;2023-03-11T16:36:56;2.50;99.90
52058;DHT22;38063;53.210;6.504;2023-03-11T16:39:21;2.60;99.90
52058;DHT22;38063;53.210;6.504;2023-03-11T16:41:47;2.60;99.90
52058;DHT22;38063;53.210;6.504;2023-03-11T16:44:13;2.60;99.90
52058;DHT22;38063;53.210;6.504;2023-03-11T16:46:38;2.60;99.90
52058;DHT22;38063;53.210;6.504;2023-03-11T16:49:04;2.60;99.90
52058;DHT22;38063;53.210;6.504;2023-03-11T16:51:30;2.70;99.90
52058;DHT22;38063;53.210;6.504;2023-03-11T16:53:56;2.70;99.90
52058;DHT22;38063;53.210;6.504;2023-03-11T16:56:22;2.70;99.90
52058;DHT22;38063;53.210;6.504;2023-03-11T16:58:47;2.70;99.90
52058;DHT22;38063;53.210;6.504;2023-03-11T17:01:14;2.70;99.90
52058;DHT22;38063;53.210;6.504;2023-03-11T17:03:41;2.70;99.90
52058;DHT22;38063;53.210;6.504;2023-03-11T17:06:08;2.70;99.90
52058;DHT22;38063;53.210;6.504;2023-03-11T17:08:33;2.70;99.90
52058;DHT22;38063;53.210;6.504;2023-03-11T17:10:59;2.70;99.90
52058;DHT22;38063;53.210;6.504;2023-03-11T17:13:25;2.60;99.90
52058;DHT22;38063;53.210;6.504;2023-03-11T17:15:58;2.60;99.90
52058;DHT22;38063;53.210;6.504;2023-03-11T17:18:24;2.60;99.90
52058;DHT22;38063;53.210;6.504;2023-03-11T17:20:50;2.50;99.90
52058;DHT22;38063;53.210;6.504;2023-03-11T17:23:17;2.50;99.90
52058;DHT22;38063;53.210;6.504;2023-03-11T17:25:42;2.50;99.90
52058;DHT22;38063;53.210;6.504;2023-03-11T17:28:08;2.50;99.90
52058;DHT22;38063;53.210;6.504;2023-03-11T17:30:34;2.40;99.90
52058;DHT22;38063;53.210;6.504;2023-03-11T17:33:00;2.30;99.90
52058;DHT22;38063;53.210;6.504;2023-03-11T17:35:25;2.30;99.90